sensor_id;sensor_type;location;lat;lon;timestamp;P1;durP1;ratioP1;P2;durP2;ratioP2
60464;SDS011;46314;52.392;9.758;2023-11-21T00:00:34;17.60;;;8.85;;
60464;SDS011;46314;52.392;9.758;2023-11-21T00:03:00;14.77;;;8.63;;
60464;SDS011;46314;52.392;9.758;2023-11-21T00:05:28;16.35;;;8.68;;
60464;SDS011;46314;52.392;9.758;2023-11-21T00:07:55;18.38;;;8.75;;
60464;SDS011;46314;52.392;9.758;2023-11-21T00:10:21;18.08;;;8.70;;
60464;SDS011;46314;52.392;9.758;2023-11-21T00:12:48;17.80;;;8.82;;
60464;SDS011;46314;52.392;9.758;2023-11-21T00:15:14;22.80;;;10.63;;
60464;SDS011;46314;52.392;9.758;2023-11-21T00:17:41;14.75;;;8.90;;
60464;SDS011;46314;52.392;9.758;2023-11-21T00:20:08;16.92;;;9.98;;
60464;SDS011;46314;52.392;9.758;2023-11-21T00:22:36;19.45;;;9.88;;
60464;SDS011;46314;52.392;9.758;2023-11-21T00:25:03;21.95;;;9.50;;
60464;SDS011;46314;52.392;9.758;2023-11-21T00:27:30;22.05;;;10.45;;
60464;SDS011;46314;52.392;9.758;2023-11-21T00:29:56;17.67;;;9.80;;
60464;SDS011;46314;52.392;9.758;2023-11-21T00:32:23;17.17;;;9.43;;
60464;SDS011;46314;52.392;9.758;2023-11-21T00:34:49;18.80;;;10.52;;
60464;SDS011;46314;52.392;9.758;2023-11-21T00:37:16;15.65;;;9.80;;
60464;SDS011;46314;52.392;9.758;2023-11-21T00:39:44;18.58;;;10.57;;
60464;SDS011;46314;52.392;9.758;2023-11-21T00:42:11;18.65;;;9.57;;
60464;SDS011;46314;52.392;9.758;2023-11-21T00:44:37;19.48;;;10.82;;
60464;SDS011;46314;52.392;9.758;2023-11-21T00:47:04;20.48;;;10.68;;
60464;SDS011;46314;52.392;9.758;2023-11-21T00:49:31;17.77;;;10.35;;
60464;SDS011;46314;52.392;9.758;2023-11-21T00:51:57;17.98;;;9.75;;
60464;SDS011;46314;52.392;9.758;2023-11-21T00:54:24;24.27;;;11.90;;
60464;SDS011;46314;52.392;9.758;2023-11-21T00:56:52;18.88;;;10.77;;
60464;SDS011;46314;52.392;9.758;2023-11-21T00:59:18;17.17;;;10.63;;
60464;SDS011;46314;52.392;9.758;2023-11-21T01:01:45;17.58;;;10.48;;
60464;SDS011;46314;52.392;9.758;2023-11-21T01:04:11;19.38;;;10.70;;
60464;SDS011;46314;52.392;9.758;2023-11-21T01:06:37;16.65;;;9.93;;
60464;SDS011;46314;52.392;9.758;2023-11-21T01:09:04;20.27;;;11.02;;
60464;SDS011;46314;52.392;9.758;2023-11-21T01:11:31;23.30;;;11.18;;
60464;SDS011;46314;52.392;9.758;2023-11-21T01:13:58;22.63;;;9.98;;
60464;SDS011;46314;52.392;9.758;2023-11-21T01:16:25;18.73;;;10.60;;
60464;SDS011;46314;52.392;9.758;2023-11-21T01:18:52;21.17;;;11.32;;
60464;SDS011;46314;52.392;9.758;2023-11-21T01:21:18;29.15;;;12.82;;
60464;SDS011;46314;52.392;9.758;2023-11-21T01:23:44;19.15;;;10.30;;
60464;SDS011;46314;52.392;9.758;2023-11-21T01:26:11;25.63;;;11.70;;
60464;SDS011;46314;52.392;9.758;2023-11-21T01:28:37;17.30;;;10.70;;
60464;SDS011;46314;52.392;9.758;2023-11-21T01:31:05;24.50;;;11.35;;
60464;SDS011;46314;52.392;9.758;2023-11-21T01:33:32;23.52;;;13.02;;
60464;SDS011;46314;52.392;9.758;2023-11-21T01:35:59;22.42;;;12.25;;
60464;SDS011;46314;52.392;9.758;2023-11-21T01:38:25;20.92;;;11.82;;
60464;SDS011;46314;52.392;9.758;2023-11-21T01:40:51;21.83;;;11.88;;
60464;SDS011;46314;52.392;9.758;2023-11-21T01:43:18;22.55;;;12.40;;
60464;SDS011;46314;52.392;9.758;2023-11-21T01:45:45;24.63;;;13.35;;
60464;SDS011;46314;52.392;9.758;2023-11-21T01:48:12;21.58;;;12.27;;
60464;SDS011;46314;52.392;9.758;2023-11-21T01:50:39;21.13;;;13.02;;
60464;SDS011;46314;52.392;9.758;2023-11-21T01:53:07;20.75;;;12.57;;
60464;SDS011;46314;52.392;9.758;2023-11-21T01:55:34;24.60;;;13.80;;
60464;SDS011;46314;52.392;9.758;2023-11-21T01:58:00;20.75;;;12.45;;
60464;SDS011;46314;52.392;9.758;2023-11-21T02:00:27;23.05;;;12.32;;
60464;SDS011;46314;52.392;9.758;2023-11-21T02:02:54;21.50;;;13.23;;
60464;SDS011;46314;52.392;9.758;2023-11-21T02:05:22;22.42;;;12.40;;
60464;SDS011;46314;52.392;9.758;2023-11-21T02:07:48;23.50;;;14.00;;
60464;SDS011;46314;52.392;9.758;2023-11-21T02:10:15;27.02;;;14.23;;
60464;SDS011;46314;52.392;9.758;2023-11-21T02:12:42;23.50;;;13.13;;
60464;SDS011;46314;52.392;9.758;2023-11-21T02:15:09;25.85;;;13.98;;
60464;SDS011;46314;52.392;9.758;2023-11-21T02:17:38;26.55;;;14.63;;
60464;SDS011;46314;52.392;9.758;2023-11-21T02:20:05;26.23;;;13.45;;
60464;SDS011;46314;52.392;9.758;2023-11-21T02:22:34;25.67;;;15.93;;
60464;SDS011;46314;52.392;9.758;2023-11-21T02:25:06;27.70;;;14.25;;
60464;SDS011;46314;52.392;9.758;2023-11-21T02:27:33;25.75;;;15.52;;
60464;SDS011;46314;52.392;9.758;2023-11-21T02:29:59;31.85;;;15.75;;
60464;SDS011;46314;52.392;9.758;2023-11-21T02:32:26;28.80;;;15.18;;
60464;SDS011;46314;52.392;9.758;2023-11-21T02:34:52;28.27;;;17.48;;
60464;SDS011;46314;52.392;9.758;2023-11-21T02:37:19;27.75;;;15.77;;
60464;SDS011;46314;52.392;9.758;2023-11-21T02:39:46;29.58;;;16.52;;
60464;SDS011;46314;52.392;9.758;2023-11-21T02:42:13;32.75;;;16.60;;
60464;SDS011;46314;52.392;9.758;2023-11-21T02:44:40;34.83;;;15.93;;
60464;SDS011;46314;52.392;9.758;2023-11-21T02:47:06;29.55;;;17.35;;
60464;SDS011;46314;52.392;9.758;2023-11-21T02:49:33;32.25;;;16.50;;
60464;SDS011;46314;52.392;9.758;2023-11-21T02:52:00;28.85;;;16.05;;
60464;SDS011;46314;52.392;9.758;2023-11-21T02:54:26;26.50;;;15.82;;
60464;SDS011;46314;52.392;9.758;2023-11-21T02:56:53;29.85;;;16.08;;
60464;SDS011;46314;52.392;9.758;2023-11-21T02:59:20;33.92;;;18.33;;
60464;SDS011;46314;52.392;9.758;2023-11-21T03:01:47;30.75;;;16.88;;
60464;SDS011;46314;52.392;9.758;2023-11-21T03:07:36;26.30;;;15.80;;
60464;SDS011;46314;52.392;9.758;2023-11-21T03:10:03;28.45;;;15.63;;
60464;SDS011;46314;52.392;9.758;2023-11-21T03:12:30;25.77;;;16.25;;
60464;SDS011;46314;52.392;9.758;2023-11-21T03:14:58;36.13;;;18.67;;
60464;SDS011;46314;52.392;9.758;2023-11-21T03:17:25;33.42;;;19.17;;
60464;SDS011;46314;52.392;9.758;2023-11-21T03:19:51;28.70;;;17.63;;
60464;SDS011;46314;52.392;9.758;2023-11-21T03:22:18;36.25;;;18.77;;
60464;SDS011;46314;52.392;9.758;2023-11-21T03:24:44;31.33;;;18.70;;
60464;SDS011;46314;52.392;9.758;2023-11-21T03:27:11;30.42;;;17.60;;
60464;SDS011;46314;52.392;9.758;2023-11-21T03:29:37;32.15;;;18.77;;
60464;SDS011;46314;52.392;9.758;2023-11-21T03:32:05;37.17;;;18.52;;
60464;SDS011;46314;52.392;9.758;2023-11-21T03:34:33;34.28;;;18.30;;
60464;SDS011;46314;52.392;9.758;2023-11-21T03:36:59;32.75;;;19.48;;
60464;SDS011;46314;52.392;9.758;2023-11-21T03:39:26;40.67;;;20.58;;
60464;SDS011;46314;52.392;9.758;2023-11-21T03:41:52;32.03;;;19.42;;
60464;SDS011;46314;52.392;9.758;2023-11-21T03:44:19;47.55;;;21.13;;
60464;SDS011;46314;52.392;9.758;2023-11-21T03:46:45;31.40;;;19.55;;
60464;SDS011;46314;52.392;9.758;2023-11-21T03:49:13;37.85;;;19.67;;
60464;SDS011;46314;52.392;9.758;2023-11-21T03:51:40;41.10;;;21.98;;
60464;SDS011;46314;52.392;9.758;2023-11-21T03:54:06;38.88;;;20.45;;
60464;SDS011;46314;52.392;9.758;2023-11-21T03:56:33;37.58;;;20.35;;
60464;SDS011;46314;52.392;9.758;2023-11-21T03:58:59;43.50;;;23.63;;
60464;SDS011;46314;52.392;9.758;2023-11-21T04:01:26;41.45;;;20.42;;
60464;SDS011;46314;52.392;9.758;2023-11-21T04:03:52;39.75;;;22.55;;
60464;SDS011;46314;52.392;9.758;2023-11-21T04:06:20;40.88;;;21.38;;
60464;SDS011;46314;52.392;9.758;2023-11-21T04:08:47;42.78;;;22.30;;
60464;SDS011;46314;52.392;9.758;2023-11-21T04:11:13;36.75;;;21.52;;
60464;SDS011;46314;52.392;9.758;2023-11-21T04:13:40;43.03;;;21.98;;
60464;SDS011;46314;52.392;9.758;2023-11-21T04:16:07;40.30;;;21.00;;
60464;SDS011;46314;52.392;9.758;2023-11-21T04:18:35;38.65;;;19.92;;
60464;SDS011;46314;52.392;9.758;2023-11-21T04:21:02;42.03;;;23.50;;
60464;SDS011;46314;52.392;9.758;2023-11-21T04:23:30;43.25;;;23.98;;
60464;SDS011;46314;52.392;9.758;2023-11-21T04:25:57;36.03;;;22.25;;
60464;SDS011;46314;52.392;9.758;2023-11-21T04:28:24;39.55;;;22.20;;
60464;SDS011;46314;52.392;9.758;2023-11-21T04:30:50;46.28;;;24.17;;
60464;SDS011;46314;52.392;9.758;2023-11-21T04:33:17;47.08;;;22.48;;
60464;SDS011;46314;52.392;9.758;2023-11-21T04:35:43;42.58;;;24.55;;
60464;SDS011;46314;52.392;9.758;2023-11-21T04:38:10;42.45;;;21.77;;
60464;SDS011;46314;52.392;9.758;2023-11-21T04:40:38;50.60;;;24.83;;
60464;SDS011;46314;52.392;9.758;2023-11-21T04:43:04;36.95;;;21.00;;
60464;SDS011;46314;52.392;9.758;2023-11-21T04:45:31;41.00;;;23.08;;
60464;SDS011;46314;52.392;9.758;2023-11-21T04:47:57;41.15;;;21.23;;
60464;SDS011;46314;52.392;9.758;2023-11-21T04:50:24;36.80;;;21.95;;
60464;SDS011;46314;52.392;9.758;2023-11-21T04:52:51;35.92;;;23.08;;
60464;SDS011;46314;52.392;9.758;2023-11-21T04:55:17;33.30;;;19.95;;
60464;SDS011;46314;52.392;9.758;2023-11-21T04:57:45;35.47;;;20.30;;
60464;SDS011;46314;52.392;9.758;2023-11-21T05:00:12;39.85;;;21.85;;
60464;SDS011;46314;52.392;9.758;2023-11-21T05:02:39;37.65;;;20.75;;
60464;SDS011;46314;52.392;9.758;2023-11-21T05:05:07;32.65;;;19.85;;
60464;SDS011;46314;52.392;9.758;2023-11-21T05:07:34;31.30;;;19.25;;
60464;SDS011;46314;52.392;9.758;2023-11-21T05:10:00;36.85;;;18.70;;
60464;SDS011;46314;52.392;9.758;2023-11-21T05:12:27;38.50;;;22.27;;
60464;SDS011;46314;52.392;9.758;2023-11-21T05:14:55;36.10;;;20.17;;
60464;SDS011;46314;52.392;9.758;2023-11-21T05:17:21;35.70;;;19.75;;
60464;SDS011;46314;52.392;9.758;2023-11-21T05:19:48;32.90;;;18.52;;
60464;SDS011;46314;52.392;9.758;2023-11-21T05:22:15;34.60;;;20.33;;
60464;SDS011;46314;52.392;9.758;2023-11-21T05:24:42;31.92;;;19.02;;
60464;SDS011;46314;52.392;9.758;2023-11-21T05:27:08;23.55;;;15.95;;
60464;SDS011;46314;52.392;9.758;2023-11-21T05:29:35;24.77;;;16.23;;
60464;SDS011;46314;52.392;9.758;2023-11-21T05:32:03;33.60;;;18.63;;
60464;SDS011;46314;52.392;9.758;2023-11-21T05:34:30;34.45;;;18.88;;
60464;SDS011;46314;52.392;9.758;2023-11-21T05:36:56;23.65;;;15.25;;
60464;SDS011;46314;52.392;9.758;2023-11-21T05:39:23;28.05;;;15.77;;
60464;SDS011;46314;52.392;9.758;2023-11-21T05:41:49;22.65;;;14.50;;
60464;SDS011;46314;52.392;9.758;2023-11-21T05:44:16;21.17;;;14.68;;
60464;SDS011;46314;52.392;9.758;2023-11-21T05:46:42;22.75;;;14.05;;
60464;SDS011;46314;52.392;9.758;2023-11-21T05:49:10;28.13;;;15.27;;
60464;SDS011;46314;52.392;9.758;2023-11-21T05:51:36;22.02;;;13.48;;
60464;SDS011;46314;52.392;9.758;2023-11-21T05:54:03;27.35;;;15.95;;
60464;SDS011;46314;52.392;9.758;2023-11-21T05:56:30;27.33;;;15.63;;
60464;SDS011;46314;52.392;9.758;2023-11-21T05:58:56;26.67;;;14.70;;
60464;SDS011;46314;52.392;9.758;2023-11-21T06:01:23;22.67;;;14.40;;
60464;SDS011;46314;52.392;9.758;2023-11-21T06:03:50;22.90;;;14.95;;
60464;SDS011;46314;52.392;9.758;2023-11-21T06:06:17;22.33;;;13.55;;
60464;SDS011;46314;52.392;9.758;2023-11-21T06:08:44;19.73;;;12.88;;
60464;SDS011;46314;52.392;9.758;2023-11-21T06:11:10;17.13;;;12.68;;
60464;SDS011;46314;52.392;9.758;2023-11-21T06:13:37;19.38;;;13.18;;
60464;SDS011;46314;52.392;9.758;2023-11-21T06:16:04;22.60;;;13.55;;
60464;SDS011;46314;52.392;9.758;2023-11-21T06:18:31;18.70;;;13.13;;
60464;SDS011;46314;52.392;9.758;2023-11-21T06:20:57;19.88;;;13.05;;
60464;SDS011;46314;52.392;9.758;2023-11-21T06:23:25;18.10;;;12.82;;
60464;SDS011;46314;52.392;9.758;2023-11-21T06:25:51;17.48;;;12.02;;
60464;SDS011;46314;52.392;9.758;2023-11-21T06:28:18;19.83;;;13.45;;
60464;SDS011;46314;52.392;9.758;2023-11-21T06:30:45;22.05;;;13.45;;
60464;SDS011;46314;52.392;9.758;2023-11-21T06:33:11;17.13;;;12.07;;
60464;SDS011;46314;52.392;9.758;2023-11-21T06:35:38;20.83;;;13.65;;
60464;SDS011;46314;52.392;9.758;2023-11-21T06:38:04;10.38;;;7.65;;
60464;SDS011;46314;52.392;9.758;2023-11-21T06:40:32;8.50;;;7.00;;
60464;SDS011;46314;52.392;9.758;2023-11-21T06:42:59;8.80;;;6.28;;
60464;SDS011;46314;52.392;9.758;2023-11-21T06:45:26;9.35;;;6.47;;
60464;SDS011;46314;52.392;9.758;2023-11-21T06:47:53;9.13;;;6.10;;
60464;SDS011;46314;52.392;9.758;2023-11-21T06:50:19;9.27;;;5.47;;
60464;SDS011;46314;52.392;9.758;2023-11-21T06:52:46;10.73;;;6.70;;
60464;SDS011;46314;52.392;9.758;2023-11-21T06:55:13;10.77;;;7.55;;
60464;SDS011;46314;52.392;9.758;2023-11-21T06:57:41;11.18;;;7.07;;
60464;SDS011;46314;52.392;9.758;2023-11-21T07:00:08;10.55;;;7.75;;
60464;SDS011;46314;52.392;9.758;2023-11-21T07:02:35;10.55;;;6.90;;
60464;SDS011;46314;52.392;9.758;2023-11-21T07:05:02;9.30;;;7.43;;
60464;SDS011;46314;52.392;9.758;2023-11-21T07:07:29;15.18;;;5.95;;
60464;SDS011;46314;52.392;9.758;2023-11-21T07:09:56;9.07;;;6.43;;
60464;SDS011;46314;52.392;9.758;2023-11-21T07:12:22;9.45;;;5.97;;
60464;SDS011;46314;52.392;9.758;2023-11-21T07:14:50;10.20;;;6.35;;
60464;SDS011;46314;52.392;9.758;2023-11-21T07:17:17;8.13;;;5.93;;
60464;SDS011;46314;52.392;9.758;2023-11-21T07:19:43;8.48;;;5.88;;
60464;SDS011;46314;52.392;9.758;2023-11-21T07:22:10;8.88;;;6.53;;
60464;SDS011;46314;52.392;9.758;2023-11-21T07:24:36;7.88;;;6.00;;
60464;SDS011;46314;52.392;9.758;2023-11-21T07:27:03;8.45;;;6.78;;
60464;SDS011;46314;52.392;9.758;2023-11-21T07:29:30;10.95;;;6.15;;
60464;SDS011;46314;52.392;9.758;2023-11-21T07:31:58;7.55;;;6.00;;
60464;SDS011;46314;52.392;9.758;2023-11-21T07:34:25;10.13;;;6.55;;
60464;SDS011;46314;52.392;9.758;2023-11-21T07:36:52;9.15;;;6.32;;
60464;SDS011;46314;52.392;9.758;2023-11-21T07:39:19;11.25;;;7.50;;
60464;SDS011;46314;52.392;9.758;2023-11-21T07:41:46;10.63;;;6.53;;
60464;SDS011;46314;52.392;9.758;2023-11-21T07:44:12;8.13;;;6.40;;
60464;SDS011;46314;52.392;9.758;2023-11-21T07:46:39;10.27;;;6.88;;
60464;SDS011;46314;52.392;9.758;2023-11-21T07:49:08;11.60;;;7.65;;
60464;SDS011;46314;52.392;9.758;2023-11-21T07:51:35;9.23;;;6.57;;
60464;SDS011;46314;52.392;9.758;2023-11-21T07:54:01;10.52;;;7.68;;
60464;SDS011;46314;52.392;9.758;2023-11-21T07:56:28;11.48;;;7.35;;
60464;SDS011;46314;52.392;9.758;2023-11-21T07:58:54;12.52;;;8.40;;
60464;SDS011;46314;52.392;9.758;2023-11-21T08:01:21;12.70;;;8.25;;
60464;SDS011;46314;52.392;9.758;2023-11-21T08:03:48;12.48;;;8.57;;
60464;SDS011;46314;52.392;9.758;2023-11-21T08:06:16;12.00;;;9.05;;
60464;SDS011;46314;52.392;9.758;2023-11-21T08:08:42;12.65;;;9.45;;
60464;SDS011;46314;52.392;9.758;2023-11-21T08:11:09;12.02;;;8.30;;
60464;SDS011;46314;52.392;9.758;2023-11-21T08:13:35;13.10;;;10.15;;
60464;SDS011;46314;52.392;9.758;2023-11-21T08:16:02;15.73;;;11.05;;
60464;SDS011;46314;52.392;9.758;2023-11-21T08:18:29;12.57;;;9.77;;
60464;SDS011;46314;52.392;9.758;2023-11-21T08:20:55;16.23;;;10.95;;
60464;SDS011;46314;52.392;9.758;2023-11-21T08:23:24;14.13;;;11.13;;
60464;SDS011;46314;52.392;9.758;2023-11-21T08:25:50;15.57;;;10.80;;
60464;SDS011;46314;52.392;9.758;2023-11-21T08:28:17;15.38;;;10.85;;
60464;SDS011;46314;52.392;9.758;2023-11-21T08:30:44;14.52;;;11.10;;
60464;SDS011;46314;52.392;9.758;2023-11-21T08:33:11;14.38;;;10.63;;
60464;SDS011;46314;52.392;9.758;2023-11-21T08:35:37;14.18;;;10.80;;
60464;SDS011;46314;52.392;9.758;2023-11-21T08:38:04;15.75;;;10.85;;
60464;SDS011;46314;52.392;9.758;2023-11-21T08:40:33;15.05;;;11.52;;
60464;SDS011;46314;52.392;9.758;2023-11-21T08:43:01;17.20;;;12.38;;
60464;SDS011;46314;52.392;9.758;2023-11-21T08:45:27;13.93;;;10.52;;
60464;SDS011;46314;52.392;9.758;2023-11-21T08:47:54;13.23;;;10.45;;
60464;SDS011;46314;52.392;9.758;2023-11-21T08:50:20;13.55;;;10.57;;
60464;SDS011;46314;52.392;9.758;2023-11-21T08:52:47;13.55;;;10.40;;
60464;SDS011;46314;52.392;9.758;2023-11-21T08:55:14;14.55;;;11.07;;
60464;SDS011;46314;52.392;9.758;2023-11-21T08:57:43;13.57;;;10.10;;
60464;SDS011;46314;52.392;9.758;2023-11-21T09:00:10;12.43;;;9.50;;
60464;SDS011;46314;52.392;9.758;2023-11-21T09:02:37;12.45;;;9.77;;
60464;SDS011;46314;52.392;9.758;2023-11-21T09:05:05;12.80;;;10.18;;
60464;SDS011;46314;52.392;9.758;2023-11-21T09:07:32;14.07;;;9.98;;
60464;SDS011;46314;52.392;9.758;2023-11-21T09:09:58;11.80;;;8.48;;
60464;SDS011;46314;52.392;9.758;2023-11-21T09:12:25;11.43;;;9.13;;
60464;SDS011;46314;52.392;9.758;2023-11-21T09:14:53;11.75;;;8.48;;
60464;SDS011;46314;52.392;9.758;2023-11-21T09:17:19;13.55;;;9.25;;
60464;SDS011;46314;52.392;9.758;2023-11-21T09:19:46;12.93;;;8.88;;
60464;SDS011;46314;52.392;9.758;2023-11-21T09:22:12;10.05;;;7.82;;
60464;SDS011;46314;52.392;9.758;2023-11-21T09:24:39;10.20;;;8.23;;
60464;SDS011;46314;52.392;9.758;2023-11-21T09:27:05;13.25;;;9.57;;
60464;SDS011;46314;52.392;9.758;2023-11-21T09:29:32;12.07;;;7.22;;
60464;SDS011;46314;52.392;9.758;2023-11-21T09:32:00;12.63;;;9.35;;
60464;SDS011;46314;52.392;9.758;2023-11-21T09:34:26;10.02;;;8.30;;
60464;SDS011;46314;52.392;9.758;2023-11-21T09:36:53;10.65;;;8.18;;
60464;SDS011;46314;52.392;9.758;2023-11-21T09:39:20;12.10;;;7.78;;
60464;SDS011;46314;52.392;9.758;2023-11-21T09:41:48;11.40;;;8.32;;
60464;SDS011;46314;52.392;9.758;2023-11-21T09:44:17;10.27;;;7.70;;
60464;SDS011;46314;52.392;9.758;2023-11-21T09:46:44;10.88;;;8.18;;
60464;SDS011;46314;52.392;9.758;2023-11-21T09:49:15;10.10;;;7.50;;
60464;SDS011;46314;52.392;9.758;2023-11-21T09:51:44;9.50;;;7.97;;
60464;SDS011;46314;52.392;9.758;2023-11-21T09:54:13;9.20;;;7.63;;
60464;SDS011;46314;52.392;9.758;2023-11-21T09:56:41;12.05;;;7.45;;
60464;SDS011;46314;52.392;9.758;2023-11-21T09:59:10;11.23;;;7.90;;
60464;SDS011;46314;52.392;9.758;2023-11-21T10:01:41;11.80;;;8.02;;
60464;SDS011;46314;52.392;9.758;2023-11-21T10:04:08;11.07;;;7.57;;
60464;SDS011;46314;52.392;9.758;2023-11-21T10:06:37;9.93;;;7.72;;
60464;SDS011;46314;52.392;9.758;2023-11-21T10:09:04;8.70;;;7.28;;
60464;SDS011;46314;52.392;9.758;2023-11-21T10:11:32;11.00;;;7.38;;
60464;SDS011;46314;52.392;9.758;2023-11-21T10:13:59;9.13;;;6.72;;
60464;SDS011;46314;52.392;9.758;2023-11-21T10:16:26;10.02;;;6.65;;
60464;SDS011;46314;52.392;9.758;2023-11-21T10:18:54;8.48;;;6.63;;
60464;SDS011;46314;52.392;9.758;2023-11-21T10:21:37;7.63;;;6.43;;
60464;SDS011;46314;52.392;9.758;2023-11-21T10:24:05;7.97;;;6.70;;
60464;SDS011;46314;52.392;9.758;2023-11-21T10:26:32;8.45;;;6.88;;
60464;SDS011;46314;52.392;9.758;2023-11-21T10:29:16;8.77;;;6.65;;
60464;SDS011;46314;52.392;9.758;2023-11-21T10:31:42;7.95;;;6.72;;
60464;SDS011;46314;52.392;9.758;2023-11-21T10:34:12;7.78;;;6.35;;
60464;SDS011;46314;52.392;9.758;2023-11-21T10:36:41;8.15;;;6.60;;
60464;SDS011;46314;52.392;9.758;2023-11-21T10:39:08;7.10;;;6.00;;
60464;SDS011;46314;52.392;9.758;2023-11-21T10:41:35;7.50;;;5.75;;
60464;SDS011;46314;52.392;9.758;2023-11-21T10:44:02;7.78;;;6.47;;
60464;SDS011;46314;52.392;9.758;2023-11-21T10:46:29;8.02;;;6.07;;
60464;SDS011;46314;52.392;9.758;2023-11-21T10:48:56;7.82;;;5.75;;
60464;SDS011;46314;52.392;9.758;2023-11-21T10:51:23;6.47;;;5.63;;
60464;SDS011;46314;52.392;9.758;2023-11-21T10:53:52;6.65;;;5.50;;
60464;SDS011;46314;52.392;9.758;2023-11-21T10:56:18;8.13;;;6.18;;
60464;SDS011;46314;52.392;9.758;2023-11-21T10:58:45;7.10;;;5.82;;
60464;SDS011;46314;52.392;9.758;2023-11-21T11:01:12;8.10;;;6.00;;
60464;SDS011;46314;52.392;9.758;2023-11-21T11:03:40;8.57;;;6.75;;
60464;SDS011;46314;52.392;9.758;2023-11-21T11:06:09;9.63;;;6.30;;
60464;SDS011;46314;52.392;9.758;2023-11-21T11:08:35;8.65;;;6.80;;
60464;SDS011;46314;52.392;9.758;2023-11-21T11:11:04;7.03;;;6.07;;
60464;SDS011;46314;52.392;9.758;2023-11-21T11:13:30;8.95;;;6.60;;
60464;SDS011;46314;52.392;9.758;2023-11-21T11:15:58;11.52;;;6.90;;
60464;SDS011;46314;52.392;9.758;2023-11-21T11:18:26;7.43;;;6.47;;
60464;SDS011;46314;52.392;9.758;2023-11-21T11:20:52;8.57;;;6.43;;
60464;SDS011;46314;52.392;9.758;2023-11-21T11:23:27;7.88;;;6.40;;
60464;SDS011;46314;52.392;9.758;2023-11-21T11:26:09;9.40;;;6.33;;
60464;SDS011;46314;52.392;9.758;2023-11-21T11:28:44;6.60;;;5.35;;
60464;SDS011;46314;52.392;9.758;2023-11-21T11:31:21;7.95;;;5.60;;
60464;SDS011;46314;52.392;9.758;2023-11-21T11:34:01;7.95;;;6.40;;
60464;SDS011;46314;52.392;9.758;2023-11-21T11:36:40;6.57;;;5.45;;
60464;SDS011;46314;52.392;9.758;2023-11-21T11:42:03;8.63;;;6.88;;
60464;SDS011;46314;52.392;9.758;2023-11-21T11:44:45;7.22;;;6.15;;
60464;SDS011;46314;52.392;9.758;2023-11-21T11:47:14;6.20;;;5.10;;
60464;SDS011;46314;52.392;9.758;2023-11-21T11:49:54;7.18;;;5.65;;
60464;SDS011;46314;52.392;9.758;2023-11-21T11:52:32;7.57;;;5.53;;
60464;SDS011;46314;52.392;9.758;2023-11-21T11:55:06;7.22;;;5.80;;
60464;SDS011;46314;52.392;9.758;2023-11-21T11:57:36;6.35;;;5.20;;
60464;SDS011;46314;52.392;9.758;2023-11-21T12:00:07;7.47;;;5.47;;
60464;SDS011;46314;52.392;9.758;2023-11-21T12:02:37;5.95;;;5.13;;
60464;SDS011;46314;52.392;9.758;2023-11-21T12:05:08;5.47;;;4.78;;
60464;SDS011;46314;52.392;9.758;2023-11-21T12:07:40;6.03;;;4.90;;
60464;SDS011;46314;52.392;9.758;2023-11-21T12:10:10;5.40;;;4.57;;
60464;SDS011;46314;52.392;9.758;2023-11-21T12:12:42;5.95;;;4.60;;
60464;SDS011;46314;52.392;9.758;2023-11-21T12:15:10;6.70;;;4.38;;
60464;SDS011;46314;52.392;9.758;2023-11-21T12:17:37;5.82;;;4.72;;
60464;SDS011;46314;52.392;9.758;2023-11-21T12:20:04;4.82;;;4.07;;
60464;SDS011;46314;52.392;9.758;2023-11-21T12:22:32;5.28;;;4.50;;
60464;SDS011;46314;52.392;9.758;2023-11-21T12:24:59;5.78;;;4.60;;
60464;SDS011;46314;52.392;9.758;2023-11-21T12:27:27;7.50;;;5.30;;
60464;SDS011;46314;52.392;9.758;2023-11-21T12:29:55;6.35;;;5.20;;
60464;SDS011;46314;52.392;9.758;2023-11-21T12:32:21;7.25;;;4.65;;
60464;SDS011;46314;52.392;9.758;2023-11-21T12:34:48;5.88;;;4.32;;
60464;SDS011;46314;52.392;9.758;2023-11-21T12:37:15;6.32;;;5.30;;
60464;SDS011;46314;52.392;9.758;2023-11-21T12:39:41;9.32;;;5.43;;
60464;SDS011;46314;52.392;9.758;2023-11-21T12:42:08;7.63;;;5.55;;
60464;SDS011;46314;52.392;9.758;2023-11-21T12:44:35;6.75;;;4.60;;
60464;SDS011;46314;52.392;9.758;2023-11-21T12:47:04;6.97;;;5.40;;
60464;SDS011;46314;52.392;9.758;2023-11-21T12:49:30;7.38;;;5.57;;
60464;SDS011;46314;52.392;9.758;2023-11-21T12:51:57;6.35;;;5.60;;
60464;SDS011;46314;52.392;9.758;2023-11-21T12:54:23;6.30;;;4.72;;
60464;SDS011;46314;52.392;9.758;2023-11-21T12:56:50;7.63;;;4.57;;
60464;SDS011;46314;52.392;9.758;2023-11-21T12:59:16;5.78;;;4.93;;
60464;SDS011;46314;52.392;9.758;2023-11-21T13:01:43;6.95;;;5.43;;
60464;SDS011;46314;52.392;9.758;2023-11-21T13:04:11;5.30;;;4.80;;
60464;SDS011;46314;52.392;9.758;2023-11-21T13:06:38;7.00;;;5.20;;
60464;SDS011;46314;52.392;9.758;2023-11-21T13:09:05;7.68;;;5.57;;
60464;SDS011;46314;52.392;9.758;2023-11-21T13:11:33;8.98;;;5.97;;
60464;SDS011;46314;52.392;9.758;2023-11-21T13:14:00;9.85;;;5.85;;
60464;SDS011;46314;52.392;9.758;2023-11-21T13:16:28;9.30;;;6.35;;
60464;SDS011;46314;52.392;9.758;2023-11-21T13:18:55;7.10;;;5.88;;
60464;SDS011;46314;52.392;9.758;2023-11-21T13:21:23;7.15;;;5.57;;
60464;SDS011;46314;52.392;9.758;2023-11-21T13:23:49;6.07;;;5.45;;
60464;SDS011;46314;52.392;9.758;2023-11-21T13:26:16;7.25;;;6.13;;
60464;SDS011;46314;52.392;9.758;2023-11-21T13:28:43;7.57;;;5.97;;
60464;SDS011;46314;52.392;9.758;2023-11-21T13:31:09;8.40;;;6.40;;
60464;SDS011;46314;52.392;9.758;2023-11-21T13:33:37;9.02;;;6.22;;
60464;SDS011;46314;52.392;9.758;2023-11-21T13:36:04;7.70;;;6.03;;
60464;SDS011;46314;52.392;9.758;2023-11-21T13:38:33;7.82;;;5.70;;
60464;SDS011;46314;52.392;9.758;2023-11-21T13:41:00;5.93;;;5.05;;
60464;SDS011;46314;52.392;9.758;2023-11-21T13:43:27;6.57;;;5.13;;
60464;SDS011;46314;52.392;9.758;2023-11-21T13:45:54;9.70;;;6.22;;
60464;SDS011;46314;52.392;9.758;2023-11-21T13:48:21;6.00;;;4.57;;
60464;SDS011;46314;52.392;9.758;2023-11-21T13:50:48;5.95;;;4.38;;
60464;SDS011;46314;52.392;9.758;2023-11-21T13:53:14;5.35;;;4.57;;
60464;SDS011;46314;52.392;9.758;2023-11-21T13:55:42;6.10;;;5.38;;
60464;SDS011;46314;52.392;9.758;2023-11-21T13:58:10;7.97;;;4.53;;
60464;SDS011;46314;52.392;9.758;2023-11-21T14:00:36;5.38;;;4.20;;
60464;SDS011;46314;52.392;9.758;2023-11-21T14:03:03;5.80;;;4.07;;
60464;SDS011;46314;52.392;9.758;2023-11-21T14:05:30;4.78;;;4.20;;
60464;SDS011;46314;52.392;9.758;2023-11-21T14:07:56;4.93;;;4.18;;
60464;SDS011;46314;52.392;9.758;2023-11-21T14:10:23;5.47;;;4.00;;
60464;SDS011;46314;52.392;9.758;2023-11-21T14:12:51;4.97;;;4.40;;
60464;SDS011;46314;52.392;9.758;2023-11-21T14:15:17;5.50;;;4.38;;
60464;SDS011;46314;52.392;9.758;2023-11-21T14:17:45;5.57;;;4.28;;
60464;SDS011;46314;52.392;9.758;2023-11-21T14:20:11;6.72;;;4.72;;
60464;SDS011;46314;52.392;9.758;2023-11-21T14:22:38;5.18;;;4.68;;
60464;SDS011;46314;52.392;9.758;2023-11-21T14:25:05;6.55;;;5.25;;
60464;SDS011;46314;52.392;9.758;2023-11-21T14:27:31;5.07;;;4.22;;
60464;SDS011;46314;52.392;9.758;2023-11-21T14:30:01;5.38;;;4.80;;
60464;SDS011;46314;52.392;9.758;2023-11-21T14:32:27;5.32;;;4.63;;
60464;SDS011;46314;52.392;9.758;2023-11-21T14:34:54;7.32;;;5.60;;
60464;SDS011;46314;52.392;9.758;2023-11-21T14:37:20;7.80;;;4.95;;
60464;SDS011;46314;52.392;9.758;2023-11-21T14:39:47;7.03;;;5.43;;